sensor_id;sensor_type;location;lat;lon;timestamp;P1;durP1;ratioP1;P2;durP2;ratioP2
13592;SDS011;6867;50.998;4.250;2022-11-15T00:02:17;23.50;;;14.70;;
13592;SDS011;6867;50.998;4.250;2022-11-15T00:04:45;24.60;;;15.37;;
13592;SDS011;6867;50.998;4.250;2022-11-15T00:07:11;25.03;;;14.83;;
13592;SDS011;6867;50.998;4.250;2022-11-15T00:09:38;22.80;;;15.23;;
13592;SDS011;6867;50.998;4.250;2022-11-15T00:12:05;24.60;;;13.87;;
13592;SDS011;6867;50.998;4.250;2022-11-15T00:14:31;24.47;;;14.93;;
13592;SDS011;6867;50.998;4.250;2022-11-15T00:16:58;24.63;;;14.67;;
13592;SDS011;6867;50.998;4.250;2022-11-15T00:19:25;22.80;;;14.60;;
13592;SDS011;6867;50.998;4.250;2022-11-15T00:21:53;22.67;;;14.50;;
13592;SDS011;6867;50.998;4.250;2022-11-15T00:24:19;25.53;;;15.60;;
13592;SDS011;6867;50.998;4.250;2022-11-15T00:26:46;25.83;;;14.80;;
13592;SDS011;6867;50.998;4.250;2022-11-15T00:29:13;22.80;;;15.10;;
13592;SDS011;6867;50.998;4.250;2022-11-15T00:31:40;18.40;;;13.47;;
13592;SDS011;6867;50.998;4.250;2022-11-15T00:34:06;20.70;;;13.83;;
13592;SDS011;6867;50.998;4.250;2022-11-15T00:36:33;22.93;;;14.00;;
13592;SDS011;6867;50.998;4.250;2022-11-15T00:39:02;22.33;;;14.40;;
13592;SDS011;6867;50.998;4.250;2022-11-15T00:41:30;22.00;;;13.07;;
13592;SDS011;6867;50.998;4.250;2022-11-15T00:43:56;23.07;;;13.50;;
13592;SDS011;6867;50.998;4.250;2022-11-15T00:46:23;25.60;;;13.77;;
13592;SDS011;6867;50.998;4.250;2022-11-15T00:48:50;21.07;;;12.83;;
13592;SDS011;6867;50.998;4.250;2022-11-15T00:51:16;19.40;;;12.23;;
13592;SDS011;6867;50.998;4.250;2022-11-15T00:53:43;20.80;;;12.23;;
13592;SDS011;6867;50.998;4.250;2022-11-15T00:56:11;21.43;;;12.17;;
13592;SDS011;6867;50.998;4.250;2022-11-15T00:58:38;18.07;;;11.53;;
13592;SDS011;6867;50.998;4.250;2022-11-15T01:01:05;19.57;;;12.10;;
13592;SDS011;6867;50.998;4.250;2022-11-15T01:03:33;16.60;;;11.40;;
13592;SDS011;6867;50.998;4.250;2022-11-15T01:06:00;18.47;;;12.20;;
13592;SDS011;6867;50.998;4.250;2022-11-15T01:08:26;19.07;;;11.30;;
13592;SDS011;6867;50.998;4.250;2022-11-15T01:10:53;21.63;;;12.77;;
13592;SDS011;6867;50.998;4.250;2022-11-15T01:13:21;19.13;;;12.43;;
13592;SDS011;6867;50.998;4.250;2022-11-15T01:15:48;19.60;;;11.67;;
13592;SDS011;6867;50.998;4.250;2022-11-15T01:18:14;19.30;;;11.20;;
13592;SDS011;6867;50.998;4.250;2022-11-15T01:20:41;18.73;;;12.13;;
13592;SDS011;6867;50.998;4.250;2022-11-15T01:23:08;17.53;;;11.37;;
13592;SDS011;6867;50.998;4.250;2022-11-15T01:25:35;19.10;;;11.27;;
13592;SDS011;6867;50.998;4.250;2022-11-15T01:28:02;20.70;;;11.87;;
13592;SDS011;6867;50.998;4.250;2022-11-15T01:30:30;18.00;;;11.77;;
13592;SDS011;6867;50.998;4.250;2022-11-15T01:32:59;18.80;;;12.17;;
13592;SDS011;6867;50.998;4.250;2022-11-15T01:35:25;20.60;;;10.50;;
13592;SDS011;6867;50.998;4.250;2022-11-15T01:37:52;20.50;;;12.20;;
13592;SDS011;6867;50.998;4.250;2022-11-15T01:40:18;21.13;;;12.23;;
13592;SDS011;6867;50.998;4.250;2022-11-15T01:42:45;18.03;;;12.23;;
13592;SDS011;6867;50.998;4.250;2022-11-15T01:45:12;19.47;;;12.80;;
13592;SDS011;6867;50.998;4.250;2022-11-15T01:47:44;17.97;;;11.80;;
13592;SDS011;6867;50.998;4.250;2022-11-15T01:50:15;20.73;;;11.73;;
13592;SDS011;6867;50.998;4.250;2022-11-15T01:52:46;15.33;;;11.27;;
13592;SDS011;6867;50.998;4.250;2022-11-15T01:55:13;19.97;;;11.40;;
13592;SDS011;6867;50.998;4.250;2022-11-15T01:57:42;19.70;;;11.23;;
13592;SDS011;6867;50.998;4.250;2022-11-15T02:00:13;22.93;;;11.37;;
13592;SDS011;6867;50.998;4.250;2022-11-15T02:02:40;16.87;;;11.63;;
13592;SDS011;6867;50.998;4.250;2022-11-15T02:05:09;18.10;;;11.47;;
13592;SDS011;6867;50.998;4.250;2022-11-15T02:07:36;16.87;;;11.30;;
13592;SDS011;6867;50.998;4.250;2022-11-15T02:10:04;19.30;;;11.30;;
13592;SDS011;6867;50.998;4.250;2022-11-15T02:12:33;14.27;;;9.50;;
13592;SDS011;6867;50.998;4.250;2022-11-15T02:15:00;20.67;;;10.80;;
13592;SDS011;6867;50.998;4.250;2022-11-15T02:17:35;18.47;;;10.33;;
13592;SDS011;6867;50.998;4.250;2022-11-15T02:20:37;18.53;;;11.00;;
13592;SDS011;6867;50.998;4.250;2022-11-15T02:23:14;14.97;;;9.40;;
13592;SDS011;6867;50.998;4.250;2022-11-15T02:26:01;16.70;;;9.20;;
13592;SDS011;6867;50.998;4.250;2022-11-15T02:28:44;16.27;;;10.10;;
13592;SDS011;6867;50.998;4.250;2022-11-15T02:31:22;19.03;;;10.97;;
13592;SDS011;6867;50.998;4.250;2022-11-15T02:33:57;19.00;;;10.80;;
13592;SDS011;6867;50.998;4.250;2022-11-15T02:36:33;17.77;;;10.53;;
13592;SDS011;6867;50.998;4.250;2022-11-15T02:39:07;18.03;;;10.53;;
13592;SDS011;6867;50.998;4.250;2022-11-15T02:41:44;16.87;;;10.03;;
13592;SDS011;6867;50.998;4.250;2022-11-15T02:44:15;21.07;;;10.77;;
13592;SDS011;6867;50.998;4.250;2022-11-15T02:46:49;14.30;;;9.90;;
13592;SDS011;6867;50.998;4.250;2022-11-15T02:49:36;20.53;;;11.50;;
13592;SDS011;6867;50.998;4.250;2022-11-15T02:52:05;18.43;;;9.97;;
13592;SDS011;6867;50.998;4.250;2022-11-15T02:54:32;15.67;;;9.83;;
13592;SDS011;6867;50.998;4.250;2022-11-15T02:57:00;19.10;;;10.27;;
13592;SDS011;6867;50.998;4.250;2022-11-15T02:59:39;14.17;;;9.50;;
13592;SDS011;6867;50.998;4.250;2022-11-15T03:02:31;14.87;;;9.60;;
13592;SDS011;6867;50.998;4.250;2022-11-15T03:05:11;12.10;;;8.47;;
13592;SDS011;6867;50.998;4.250;2022-11-15T03:07:44;13.63;;;8.50;;
13592;SDS011;6867;50.998;4.250;2022-11-15T03:10:17;12.33;;;9.17;;
13592;SDS011;6867;50.998;4.250;2022-11-15T03:12:50;16.63;;;8.23;;
13592;SDS011;6867;50.998;4.250;2022-11-15T03:15:23;14.43;;;8.03;;
13592;SDS011;6867;50.998;4.250;2022-11-15T03:17:55;14.17;;;8.30;;
13592;SDS011;6867;50.998;4.250;2022-11-15T03:20:25;11.10;;;7.90;;
13592;SDS011;6867;50.998;4.250;2022-11-15T03:22:54;16.20;;;8.37;;
13592;SDS011;6867;50.998;4.250;2022-11-15T03:25:25;11.30;;;8.13;;
13592;SDS011;6867;50.998;4.250;2022-11-15T03:27:55;12.33;;;7.30;;
13592;SDS011;6867;50.998;4.250;2022-11-15T03:30:27;13.07;;;7.80;;
13592;SDS011;6867;50.998;4.250;2022-11-15T03:32:58;12.33;;;8.30;;
13592;SDS011;6867;50.998;4.250;2022-11-15T03:35:27;13.47;;;8.13;;
13592;SDS011;6867;50.998;4.250;2022-11-15T03:38:00;10.50;;;6.97;;
13592;SDS011;6867;50.998;4.250;2022-11-15T03:40:37;14.37;;;8.10;;
13592;SDS011;6867;50.998;4.250;2022-11-15T03:43:07;15.13;;;7.70;;
13592;SDS011;6867;50.998;4.250;2022-11-15T03:45:42;12.60;;;7.70;;
13592;SDS011;6867;50.998;4.250;2022-11-15T03:48:14;14.63;;;8.00;;
13592;SDS011;6867;50.998;4.250;2022-11-15T03:50:46;12.23;;;7.63;;
13592;SDS011;6867;50.998;4.250;2022-11-15T03:53:14;13.47;;;8.07;;
13592;SDS011;6867;50.998;4.250;2022-11-15T03:55:40;11.63;;;7.47;;
13592;SDS011;6867;50.998;4.250;2022-11-15T03:58:07;13.80;;;7.20;;
13592;SDS011;6867;50.998;4.250;2022-11-15T04:00:34;12.27;;;6.90;;
13592;SDS011;6867;50.998;4.250;2022-11-15T04:03:01;10.53;;;7.13;;
13592;SDS011;6867;50.998;4.250;2022-11-15T04:05:29;11.03;;;6.40;;
13592;SDS011;6867;50.998;4.250;2022-11-15T04:07:55;10.50;;;7.10;;
13592;SDS011;6867;50.998;4.250;2022-11-15T04:10:22;11.13;;;6.83;;
13592;SDS011;6867;50.998;4.250;2022-11-15T04:12:49;12.67;;;6.23;;
13592;SDS011;6867;50.998;4.250;2022-11-15T04:15:16;12.00;;;6.40;;
13592;SDS011;6867;50.998;4.250;2022-11-15T04:17:45;9.30;;;5.83;;
13592;SDS011;6867;50.998;4.250;2022-11-15T04:20:15;12.07;;;6.30;;
13592;SDS011;6867;50.998;4.250;2022-11-15T04:23:03;11.67;;;5.53;;
13592;SDS011;6867;50.998;4.250;2022-11-15T04:25:49;10.53;;;6.17;;
13592;SDS011;6867;50.998;4.250;2022-11-15T04:28:17;12.50;;;6.57;;
13592;SDS011;6867;50.998;4.250;2022-11-15T04:30:44;11.37;;;6.20;;
13592;SDS011;6867;50.998;4.250;2022-11-15T04:33:11;11.40;;;6.27;;
13592;SDS011;6867;50.998;4.250;2022-11-15T04:35:38;11.93;;;6.57;;
13592;SDS011;6867;50.998;4.250;2022-11-15T04:38:07;11.57;;;6.37;;
13592;SDS011;6867;50.998;4.250;2022-11-15T04:40:34;7.63;;;5.43;;
13592;SDS011;6867;50.998;4.250;2022-11-15T04:43:01;10.93;;;5.80;;
13592;SDS011;6867;50.998;4.250;2022-11-15T04:45:30;11.73;;;5.20;;
13592;SDS011;6867;50.998;4.250;2022-11-15T04:47:57;10.00;;;5.77;;
13592;SDS011;6867;50.998;4.250;2022-11-15T04:50:23;11.53;;;5.43;;
13592;SDS011;6867;50.998;4.250;2022-11-15T04:52:51;8.33;;;5.00;;
13592;SDS011;6867;50.998;4.250;2022-11-15T04:55:21;8.27;;;4.97;;
13592;SDS011;6867;50.998;4.250;2022-11-15T04:57:48;8.40;;;5.60;;
13592;SDS011;6867;50.998;4.250;2022-11-15T05:00:24;8.60;;;4.80;;
13592;SDS011;6867;50.998;4.250;2022-11-15T05:02:50;9.27;;;5.17;;
13592;SDS011;6867;50.998;4.250;2022-11-15T05:05:34;9.63;;;4.93;;
13592;SDS011;6867;50.998;4.250;2022-11-15T05:08:01;7.83;;;4.87;;
13592;SDS011;6867;50.998;4.250;2022-11-15T05:10:29;8.47;;;4.90;;
13592;SDS011;6867;50.998;4.250;2022-11-15T05:12:56;10.23;;;4.93;;
13592;SDS011;6867;50.998;4.250;2022-11-15T05:15:23;8.20;;;4.77;;
13592;SDS011;6867;50.998;4.250;2022-11-15T05:17:49;11.47;;;5.30;;
13592;SDS011;6867;50.998;4.250;2022-11-15T05:20:16;11.63;;;4.57;;
13592;SDS011;6867;50.998;4.250;2022-11-15T05:22:43;9.70;;;4.03;;
13592;SDS011;6867;50.998;4.250;2022-11-15T05:25:09;8.00;;;3.97;;
13592;SDS011;6867;50.998;4.250;2022-11-15T05:27:37;7.20;;;4.03;;
13592;SDS011;6867;50.998;4.250;2022-11-15T05:30:04;8.20;;;4.83;;
13592;SDS011;6867;50.998;4.250;2022-11-15T05:32:32;6.30;;;4.30;;
13592;SDS011;6867;50.998;4.250;2022-11-15T05:34:58;10.47;;;4.73;;
13592;SDS011;6867;50.998;4.250;2022-11-15T05:37:25;7.70;;;4.43;;
13592;SDS011;6867;50.998;4.250;2022-11-15T05:39:52;9.77;;;4.50;;
13592;SDS011;6867;50.998;4.250;2022-11-15T05:42:18;7.57;;;4.70;;
13592;SDS011;6867;50.998;4.250;2022-11-15T05:44:47;9.03;;;4.33;;
13592;SDS011;6867;50.998;4.250;2022-11-15T05:47:16;10.43;;;4.90;;
13592;SDS011;6867;50.998;4.250;2022-11-15T05:49:45;8.80;;;4.57;;
13592;SDS011;6867;50.998;4.250;2022-11-15T05:52:16;10.67;;;4.83;;
13592;SDS011;6867;50.998;4.250;2022-11-15T05:54:46;9.80;;;4.63;;
13592;SDS011;6867;50.998;4.250;2022-11-15T05:57:13;7.43;;;3.90;;
13592;SDS011;6867;50.998;4.250;2022-11-15T05:59:40;8.23;;;4.43;;
13592;SDS011;6867;50.998;4.250;2022-11-15T06:02:09;8.80;;;3.50;;
13592;SDS011;6867;50.998;4.250;2022-11-15T06:04:36;7.13;;;4.30;;
13592;SDS011;6867;50.998;4.250;2022-11-15T06:07:03;7.03;;;3.97;;
13592;SDS011;6867;50.998;4.250;2022-11-15T06:09:30;11.00;;;3.80;;
13592;SDS011;6867;50.998;4.250;2022-11-15T06:11:56;8.80;;;3.80;;
13592;SDS011;6867;50.998;4.250;2022-11-15T06:14:23;7.47;;;3.87;;
13592;SDS011;6867;50.998;4.250;2022-11-15T06:16:50;9.47;;;4.00;;
13592;SDS011;6867;50.998;4.250;2022-11-15T06:19:18;8.27;;;4.30;;
13592;SDS011;6867;50.998;4.250;2022-11-15T06:21:44;6.40;;;4.07;;
13592;SDS011;6867;50.998;4.250;2022-11-15T06:24:11;7.07;;;4.57;;
13592;SDS011;6867;50.998;4.250;2022-11-15T06:26:38;16.93;;;5.00;;
13592;SDS011;6867;50.998;4.250;2022-11-15T06:29:04;12.00;;;5.77;;
13592;SDS011;6867;50.998;4.250;2022-11-15T06:31:31;12.33;;;5.73;;
13592;SDS011;6867;50.998;4.250;2022-11-15T06:33:59;9.13;;;5.60;;
13592;SDS011;6867;50.998;4.250;2022-11-15T06:36:27;13.80;;;6.20;;
13592;SDS011;6867;50.998;4.250;2022-11-15T06:38:54;12.07;;;6.53;;
13592;SDS011;6867;50.998;4.250;2022-11-15T06:41:20;7.57;;;5.00;;
13592;SDS011;6867;50.998;4.250;2022-11-15T06:43:47;11.00;;;5.50;;
13592;SDS011;6867;50.998;4.250;2022-11-15T06:46:13;9.60;;;5.33;;
13592;SDS011;6867;50.998;4.250;2022-11-15T06:48:40;9.50;;;5.67;;
13592;SDS011;6867;50.998;4.250;2022-11-15T06:51:07;9.30;;;5.73;;
13592;SDS011;6867;50.998;4.250;2022-11-15T06:53:35;11.67;;;5.03;;
13592;SDS011;6867;50.998;4.250;2022-11-15T06:56:02;7.23;;;5.00;;
13592;SDS011;6867;50.998;4.250;2022-11-15T06:58:31;9.77;;;5.60;;
13592;SDS011;6867;50.998;4.250;2022-11-15T07:00:58;8.70;;;5.00;;
13592;SDS011;6867;50.998;4.250;2022-11-15T07:03:26;13.60;;;4.63;;
13592;SDS011;6867;50.998;4.250;2022-11-15T07:05:53;8.30;;;4.70;;
13592;SDS011;6867;50.998;4.250;2022-11-15T07:08:21;8.13;;;4.23;;
13592;SDS011;6867;50.998;4.250;2022-11-15T07:10:49;7.80;;;5.07;;
13592;SDS011;6867;50.998;4.250;2022-11-15T07:13:16;5.83;;;4.03;;
13592;SDS011;6867;50.998;4.250;2022-11-15T07:15:42;10.77;;;4.40;;
13592;SDS011;6867;50.998;4.250;2022-11-15T07:18:09;11.17;;;4.77;;
13592;SDS011;6867;50.998;4.250;2022-11-15T07:20:36;6.63;;;4.57;;
13592;SDS011;6867;50.998;4.250;2022-11-15T07:23:03;9.40;;;5.10;;
13592;SDS011;6867;50.998;4.250;2022-11-15T07:25:30;8.50;;;4.90;;
13592;SDS011;6867;50.998;4.250;2022-11-15T07:27:59;9.57;;;4.80;;
13592;SDS011;6867;50.998;4.250;2022-11-15T07:30:26;8.07;;;4.87;;
13592;SDS011;6867;50.998;4.250;2022-11-15T07:32:53;12.17;;;6.17;;
13592;SDS011;6867;50.998;4.250;2022-11-15T07:35:20;8.33;;;4.87;;
13592;SDS011;6867;50.998;4.250;2022-11-15T07:37:52;12.30;;;5.10;;
13592;SDS011;6867;50.998;4.250;2022-11-15T07:40:20;7.80;;;5.27;;
13592;SDS011;6867;50.998;4.250;2022-11-15T07:42:46;7.87;;;4.90;;
13592;SDS011;6867;50.998;4.250;2022-11-15T07:45:20;7.37;;;5.20;;
13592;SDS011;6867;50.998;4.250;2022-11-15T07:47:48;10.57;;;5.23;;
13592;SDS011;6867;50.998;4.250;2022-11-15T07:50:15;9.07;;;5.57;;
13592;SDS011;6867;50.998;4.250;2022-11-15T07:52:43;7.57;;;5.03;;
13592;SDS011;6867;50.998;4.250;2022-11-15T07:55:09;12.40;;;5.80;;
13592;SDS011;6867;50.998;4.250;2022-11-15T07:57:36;10.90;;;5.70;;
13592;SDS011;6867;50.998;4.250;2022-11-15T08:00:04;9.90;;;5.53;;
13592;SDS011;6867;50.998;4.250;2022-11-15T08:02:33;6.97;;;5.20;;
13592;SDS011;6867;50.998;4.250;2022-11-15T08:05:00;10.80;;;5.53;;
13592;SDS011;6867;50.998;4.250;2022-11-15T08:07:28;10.57;;;4.70;;
13592;SDS011;6867;50.998;4.250;2022-11-15T08:09:55;7.43;;;5.00;;
13592;SDS011;6867;50.998;4.250;2022-11-15T08:12:22;8.80;;;5.20;;
13592;SDS011;6867;50.998;4.250;2022-11-15T08:14:48;6.87;;;4.93;;
13592;SDS011;6867;50.998;4.250;2022-11-15T08:17:15;9.57;;;4.47;;
13592;SDS011;6867;50.998;4.250;2022-11-15T08:19:43;6.83;;;4.27;;
13592;SDS011;6867;50.998;4.250;2022-11-15T08:22:10;9.10;;;4.03;;
13592;SDS011;6867;50.998;4.250;2022-11-15T08:24:37;4.67;;;3.83;;
13592;SDS011;6867;50.998;4.250;2022-11-15T08:27:04;5.93;;;3.50;;
13592;SDS011;6867;50.998;4.250;2022-11-15T08:29:39;6.10;;;3.87;;
13592;SDS011;6867;50.998;4.250;2022-11-15T08:32:07;6.33;;;3.20;;
13592;SDS011;6867;50.998;4.250;2022-11-15T08:34:33;11.77;;;3.50;;
13592;SDS011;6867;50.998;4.250;2022-11-15T08:37:01;6.60;;;3.17;;
13592;SDS011;6867;50.998;4.250;2022-11-15T08:39:28;7.33;;;2.60;;
13592;SDS011;6867;50.998;4.250;2022-11-15T08:41:54;3.47;;;2.00;;
13592;SDS011;6867;50.998;4.250;2022-11-15T08:44:21;6.77;;;3.00;;
13592;SDS011;6867;50.998;4.250;2022-11-15T08:46:49;3.43;;;2.40;;
13592;SDS011;6867;50.998;4.250;2022-11-15T08:49:16;6.67;;;2.57;;
13592;SDS011;6867;50.998;4.250;2022-11-15T08:51:42;11.03;;;2.47;;
13592;SDS011;6867;50.998;4.250;2022-11-15T08:54:10;3.87;;;2.20;;
13592;SDS011;6867;50.998;4.250;2022-11-15T08:56:37;3.53;;;2.43;;
13592;SDS011;6867;50.998;4.250;2022-11-15T08:59:03;4.67;;;2.30;;
13592;SDS011;6867;50.998;4.250;2022-11-15T09:01:30;4.57;;;2.40;;
13592;SDS011;6867;50.998;4.250;2022-11-15T09:03:57;5.70;;;3.00;;
13592;SDS011;6867;50.998;4.250;2022-11-15T09:06:24;8.33;;;2.93;;
13592;SDS011;6867;50.998;4.250;2022-11-15T09:08:50;4.70;;;2.50;;
13592;SDS011;6867;50.998;4.250;2022-11-15T09:11:18;3.27;;;2.27;;
13592;SDS011;6867;50.998;4.250;2022-11-15T09:13:47;3.43;;;2.50;;
13592;SDS011;6867;50.998;4.250;2022-11-15T09:16:13;5.80;;;2.80;;
13592;SDS011;6867;50.998;4.250;2022-11-15T09:18:40;5.03;;;2.50;;
13592;SDS011;6867;50.998;4.250;2022-11-15T09:21:07;4.43;;;2.37;;
13592;SDS011;6867;50.998;4.250;2022-11-15T09:23:34;6.70;;;2.27;;
13592;SDS011;6867;50.998;4.250;2022-11-15T09:26:02;4.70;;;2.07;;
13592;SDS011;6867;50.998;4.250;2022-11-15T09:28:31;5.27;;;2.23;;
13592;SDS011;6867;50.998;4.250;2022-11-15T09:30:59;2.43;;;1.30;;
13592;SDS011;6867;50.998;4.250;2022-11-15T09:33:28;6.47;;;1.90;;
13592;SDS011;6867;50.998;4.250;2022-11-15T09:35:59;7.10;;;1.70;;
13592;SDS011;6867;50.998;4.250;2022-11-15T09:38:27;4.73;;;1.73;;
13592;SDS011;6867;50.998;4.250;2022-11-15T09:40:57;6.73;;;1.60;;
13592;SDS011;6867;50.998;4.250;2022-11-15T09:43:42;7.67;;;1.43;;
13592;SDS011;6867;50.998;4.250;2022-11-15T09:46:18;4.03;;;1.80;;
13592;SDS011;6867;50.998;4.250;2022-11-15T09:48:51;4.60;;;1.70;;
13592;SDS011;6867;50.998;4.250;2022-11-15T09:51:24;6.20;;;1.87;;
13592;SDS011;6867;50.998;4.250;2022-11-15T09:54:00;3.87;;;1.67;;
13592;SDS011;6867;50.998;4.250;2022-11-15T09:56:31;4.00;;;2.03;;
13592;SDS011;6867;50.998;4.250;2022-11-15T09:59:04;3.43;;;1.57;;
13592;SDS011;6867;50.998;4.250;2022-11-15T10:01:49;2.63;;;1.40;;
13592;SDS011;6867;50.998;4.250;2022-11-15T10:04:23;2.57;;;1.40;;
13592;SDS011;6867;50.998;4.250;2022-11-15T10:07:05;5.20;;;2.43;;
13592;SDS011;6867;50.998;4.250;2022-11-15T10:09:41;2.67;;;1.13;;
13592;SDS011;6867;50.998;4.250;2022-11-15T10:12:12;2.23;;;1.30;;
13592;SDS011;6867;50.998;4.250;2022-11-15T10:14:41;3.70;;;1.50;;
13592;SDS011;6867;50.998;4.250;2022-11-15T10:17:24;6.80;;;2.07;;
13592;SDS011;6867;50.998;4.250;2022-11-15T10:20:02;6.97;;;1.73;;
13592;SDS011;6867;50.998;4.250;2022-11-15T10:22:38;5.17;;;1.57;;
13592;SDS011;6867;50.998;4.250;2022-11-15T10:25:16;7.27;;;1.80;;
13592;SDS011;6867;50.998;4.250;2022-11-15T10:27:47;5.13;;;1.77;;
13592;SDS011;6867;50.998;4.250;2022-11-15T10:30:20;5.63;;;1.40;;
13592;SDS011;6867;50.998;4.250;2022-11-15T10:32:48;4.73;;;1.37;;
13592;SDS011;6867;50.998;4.250;2022-11-15T10:35:16;6.40;;;1.47;;
13592;SDS011;6867;50.998;4.250;2022-11-15T10:37:49;4.80;;;1.37;;
13592;SDS011;6867;50.998;4.250;2022-11-15T10:40:17;4.30;;;1.53;;
13592;SDS011;6867;50.998;4.250;2022-11-15T10:42:46;7.20;;;1.20;;
13592;SDS011;6867;50.998;4.250;2022-11-15T10:45:23;4.67;;;1.40;;
13592;SDS011;6867;50.998;4.250;2022-11-15T10:47:52;4.57;;;1.37;;
13592;SDS011;6867;50.998;4.250;2022-11-15T10:50:27;3.33;;;1.30;;
13592;SDS011;6867;50.998;4.250;2022-11-15T10:52:55;3.73;;;1.47;;
13592;SDS011;6867;50.998;4.250;2022-11-15T10:55:23;7.67;;;1.60;;
13592;SDS011;6867;50.998;4.250;2022-11-15T10:57:53;4.67;;;1.60;;
13592;SDS011;6867;50.998;4.250;2022-11-15T11:00:29;5.10;;;1.57;;
13592;SDS011;6867;50.998;4.250;2022-11-15T11:02:59;6.97;;;1.37;;
13592;SDS011;6867;50.998;4.250;2022-11-15T11:05:28;1.90;;;1.33;;
13592;SDS011;6867;50.998;4.250;2022-11-15T11:07:57;3.40;;;1.20;;
13592;SDS011;6867;50.998;4.250;2022-11-15T11:10:26;1.77;;;1.20;;
13592;SDS011;6867;50.998;4.250;2022-11-15T11:12:53;6.30;;;1.57;;
13592;SDS011;6867;50.998;4.250;2022-11-15T11:15:20;3.80;;;1.47;;
13592;SDS011;6867;50.998;4.250;2022-11-15T11:17:55;3.10;;;1.30;;
13592;SDS011;6867;50.998;4.250;2022-11-15T11:20:30;4.23;;;1.20;;
13592;SDS011;6867;50.998;4.250;2022-11-15T11:23:05;4.17;;;1.50;;
13592;SDS011;6867;50.998;4.250;2022-11-15T11:25:46;3.90;;;1.37;;
13592;SDS011;6867;50.998;4.250;2022-11-15T11:28:26;4.87;;;1.57;;
13592;SDS011;6867;50.998;4.250;2022-11-15T11:31:07;4.77;;;1.17;;
13592;SDS011;6867;50.998;4.250;2022-11-15T11:33:47;4.60;;;1.13;;
13592;SDS011;6867;50.998;4.250;2022-11-15T11:36:21;6.57;;;1.30;;
13592;SDS011;6867;50.998;4.250;2022-11-15T11:38:56;5.10;;;1.77;;
13592;SDS011;6867;50.998;4.250;2022-11-15T11:41:44;3.97;;;1.53;;
13592;SDS011;6867;50.998;4.250;2022-11-15T11:44:23;4.63;;;1.17;;
13592;SDS011;6867;50.998;4.250;2022-11-15T11:46:58;3.37;;;1.30;;
13592;SDS011;6867;50.998;4.250;2022-11-15T11:49:30;4.00;;;1.83;;
13592;SDS011;6867;50.998;4.250;2022-11-15T11:52:02;5.77;;;1.13;;
13592;SDS011;6867;50.998;4.250;2022-11-15T11:54:38;6.27;;;1.20;;
13592;SDS011;6867;50.998;4.250;2022-11-15T11:57:13;2.63;;;1.73;;
13592;SDS011;6867;50.998;4.250;2022-11-15T11:59:48;4.47;;;1.10;;
13592;SDS011;6867;50.998;4.250;2022-11-15T12:02:21;6.27;;;1.10;;
13592;SDS011;6867;50.998;4.250;2022-11-15T12:04:57;3.30;;;1.00;;
13592;SDS011;6867;50.998;4.250;2022-11-15T12:07:30;3.27;;;1.20;;
13592;SDS011;6867;50.998;4.250;2022-11-15T12:10:01;6.17;;;1.33;;
13592;SDS011;6867;50.998;4.250;2022-11-15T12:12:33;3.60;;;1.27;;
13592;SDS011;6867;50.998;4.250;2022-11-15T12:15:10;1.93;;;1.07;;
13592;SDS011;6867;50.998;4.250;2022-11-15T12:17:42;3.27;;;1.60;;
13592;SDS011;6867;50.998;4.250;2022-11-15T12:20:15;3.53;;;1.30;;
13592;SDS011;6867;50.998;4.250;2022-11-15T12:22:46;2.73;;;0.90;;
13592;SDS011;6867;50.998;4.250;2022-11-15T12:25:16;4.03;;;1.13;;
13592;SDS011;6867;50.998;4.250;2022-11-15T12:27:47;4.97;;;1.20;;
13592;SDS011;6867;50.998;4.250;2022-11-15T12:30:20;6.13;;;1.33;;
13592;SDS011;6867;50.998;4.250;2022-11-15T12:32:49;3.37;;;1.20;;
13592;SDS011;6867;50.998;4.250;2022-11-15T12:35:23;3.27;;;1.17;;
13592;SDS011;6867;50.998;4.250;2022-11-15T12:37:53;6.90;;;1.13;;
13592;SDS011;6867;50.998;4.250;2022-11-15T12:40:33;4.93;;;1.77;;
13592;SDS011;6867;50.998;4.250;2022-11-15T12:46:01;2.00;;;1.10;;
13592;SDS011;6867;50.998;4.250;2022-11-15T12:48:47;1.65;;;1.15;;
13592;SDS011;6867;50.998;4.250;2022-11-15T12:51:18;4.60;;;1.30;;
13592;SDS011;6867;50.998;4.250;2022-11-15T12:53:46;2.53;;;1.50;;
13592;SDS011;6867;50.998;4.250;2022-11-15T12:56:23;3.23;;;1.40;;
13592;SDS011;6867;50.998;4.250;2022-11-15T12:58:51;1.40;;;1.20;;
13592;SDS011;6867;50.998;4.250;2022-11-15T13:04:27;4.17;;;1.10;;
13592;SDS011;6867;50.998;4.250;2022-11-15T13:06:58;2.13;;;1.50;;
13592;SDS011;6867;50.998;4.250;2022-11-15T13:15:40;4.57;;;1.20;;
13592;SDS011;6867;50.998;4.250;2022-11-15T13:18:25;3.63;;;1.90;;
13592;SDS011;6867;50.998;4.250;2022-11-15T13:20:55;5.80;;;1.80;;
13592;SDS011;6867;50.998;4.250;2022-11-15T13:23:23;6.37;;;2.10;;
13592;SDS011;6867;50.998;4.250;2022-11-15T13:25:53;3.93;;;1.80;;
13592;SDS011;6867;50.998;4.250;2022-11-15T13:28:43;3.87;;;1.97;;
13592;SDS011;6867;50.998;4.250;2022-11-15T13:31:19;5.03;;;2.27;;
13592;SDS011;6867;50.998;4.250;2022-11-15T13:33:50;3.87;;;2.30;;
13592;SDS011;6867;50.998;4.250;2022-11-15T13:36:19;3.80;;;1.77;;
13592;SDS011;6867;50.998;4.250;2022-11-15T13:38:56;2.93;;;1.73;;
13592;SDS011;6867;50.998;4.250;2022-11-15T13:41:25;3.10;;;1.80;;
13592;SDS011;6867;50.998;4.250;2022-11-15T13:43:54;3.63;;;1.80;;
13592;SDS011;6867;50.998;4.250;2022-11-15T13:46:22;1.97;;;1.27;;
13592;SDS011;6867;50.998;4.250;2022-11-15T13:48:54;2.53;;;1.03;;
13592;SDS011;6867;50.998;4.250;2022-11-15T13:51:25;3.47;;;1.37;;
13592;SDS011;6867;50.998;4.250;2022-11-15T13:53:57;3.80;;;1.60;;
13592;SDS011;6867;50.998;4.250;2022-11-15T13:56:28;5.90;;;2.27;;
13592;SDS011;6867;50.998;4.250;2022-11-15T13:58:57;2.63;;;1.43;;
13592;SDS011;6867;50.998;4.250;2022-11-15T14:01:23;3.50;;;1.60;;
13592;SDS011;6867;50.998;4.250;2022-11-15T14:03:58;2.73;;;1.43;;
13592;SDS011;6867;50.998;4.250;2022-11-15T14:06:27;3.77;;;1.33;;
13592;SDS011;6867;50.998;4.250;2022-11-15T14:09:04;2.50;;;1.37;;
13592;SDS011;6867;50.998;4.250;2022-11-15T14:11:51;4.30;;;1.30;;
13592;SDS011;6867;50.998;4.250;2022-11-15T14:14:20;0.90;;;0.90;;
13592;SDS011;6867;50.998;4.250;2022-11-15T14:16:49;1.53;;;1.10;;
13592;SDS011;6867;50.998;4.250;2022-11-15T14:19:34;1.90;;;1.10;;
13592;SDS011;6867;50.998;4.250;2022-11-15T14:22:10;1.50;;;1.30;;
13592;SDS011;6867;50.998;4.250;2022-11-15T14:24:44;2.87;;;1.13;;
13592;SDS011;6867;50.998;4.250;2022-11-15T14:27:22;6.47;;;1.70;;
13592;SDS011;6867;50.998;4.250;2022-11-15T14:29:50;2.93;;;1.40;;
13592;SDS011;6867;50.998;4.250;2022-11-15T14:32:19;2.77;;;1.23;;
13592;SDS011;6867;50.998;4.250;2022-11-15T14:34:47;2.60;;;1.10;;
13592;SDS011;6867;50.998;4.250;2022-11-15T14:37:22;2.47;;;1.10;;
13592;SDS011;6867;50.998;4.250;2022-11-15T14:39:52;3.63;;;1.50;;
13592;SDS011;6867;50.998;4.250;2022-11-15T14:42:19;1.87;;;1.00;;
13592;SDS011;6867;50.998;4.250;2022-11-15T14:44:47;2.90;;;1.40;;
13592;SDS011;6867;50.998;4.250;2022-11-15T14:47:13;3.73;;;1.53;;
13592;SDS011;6867;50.998;4.250;2022-11-15T14:49:40;1.87;;;1.40;;
13592;SDS011;6867;50.998;4.250;2022-11-15T14:52:16;2.07;;;1.53;;
13592;SDS011;6867;50.998;4.250;2022-11-15T14:54:51;2.60;;;1.50;;
13592;SDS011;6867;50.998;4.250;2022-11-15T14:57:18;4.50;;;1.40;;
13592;SDS011;6867;50.998;4.250;2022-11-15T14:59:45;3.53;;;1.70;;
13592;SDS011;6867;50.998;4.250;2022-11-15T15:02:13;3.17;;;1.63;;
13592;SDS011;6867;50.998;4.250;2022-11-15T15:04:43;2.63;;;1.47;;
13592;SDS011;6867;50.998;4.250;2022-11-15T15:07:09;4.40;;;2.03;;
13592;SDS011;6867;50.998;4.250;2022-11-15T15:09:36;4.90;;;2.03;;
13592;SDS011;6867;50.998;4.250;2022-11-15T15:12:05;3.70;;;1.50;;
13592;SDS011;6867;50.998;4.250;2022-11-15T15:14:34;2.23;;;1.63;;
13592;SDS011;6867;50.998;4.250;2022-11-15T15:17:01;2.97;;;1.60;;
13592;SDS011;6867;50.998;4.250;2022-11-15T15:19:27;3.13;;;1.60;;
13592;SDS011;6867;50.998;4.250;2022-11-15T15:21:54;2.87;;;1.70;;
13592;SDS011;6867;50.998;4.250;2022-11-15T15:24:20;3.30;;;2.23;;